Time;durP1;ratioP1;P1;durP2;ratioP2;P2;SDS_P1;SDS_P2;PMS_P1;PMS_P2;Temp;Humidity;BMP_temperature;BMP_pressure;BME280_temperature;BME280_humidity;BME280_pressure;Samples;Min_cycle;Max_cycle;Signal;HPM_P1;HPM_P2
2022/04/08 00:00:20;;;;;;;;;;;;;;;5.30;100.00;99027.66;5090953;28;19927;-76
2022/04/08 00:02:45;;;;;;;;;;;;;;;5.24;100.00;99044.06;5059781;28;20347;-77
2022/04/08 00:05:11;;;;;;;;;;;;;;;5.23;100.00;99052.72;5076984;28;19920;-77
2022/04/08 00:07:36;;;;;;;;;;;;;;;5.24;100.00;99054.50;5057915;28;19942;-77
2022/04/08 00:10:02;;;;;;;;;;;;;;;5.27;100.00;99059.81;5074508;28;19938;-77
2022/04/08 00:12:28;;;;;;;;;;;;;;;5.26;100.00;99060.63;5081978;28;19919;-75
2022/04/08 00:14:55;;;;;;;;;;;;;;;5.28;100.00;99074.59;5094800;28;20019;-75
2022/04/08 00:17:22;;;;;;;;;;;;;;;5.30;100.00;99088.59;5090833;28;19956;-75
2022/04/08 00:19:47;;;;;;;;;;;;;;;5.32;100.00;99081.69;5082876;28;19965;-76
2022/04/08 00:22:12;;;;;;;;;;;;;;;5.29;100.00;99084.22;5101145;28;19920;-77
2022/04/08 00:24:38;;;;;;;;;;;;;;;5.31;100.00;99092.09;5110861;28;20295;-76
2022/04/08 00:27:04;;;;;;;;;;;;;;;5.31;100.00;99107.75;5089783;28;19920;-75
2022/04/08 00:29:30;;;;;;;;;;;;;;;5.03;100.00;99107.81;5077411;28;19927;-76
2022/04/08 00:31:57;;;;;;;;;;;;;;;4.90;100.00;99102.19;5089907;28;19920;-75
2022/04/08 00:34:27;;;;;;;;;;;;;;;4.74;100.00;99092.97;5092921;28;19916;-76
2022/04/08 00:36:54;;;;;;;;;;;;;;;4.66;100.00;99070.19;5094646;28;20528;-76
2022/04/08 00:39:19;;;;;;;;;;;;;;;4.57;100.00;99069.00;5094935;28;19958;-76
2022/04/08 00:41:45;;;;;;;;;;;;;;;4.53;100.00;99070.63;5103395;28;20399;-77
2022/04/08 00:44:11;;;;;;;;;;;;;;;4.51;100.00;99061.88;5085228;28;19942;-75
2022/04/08 00:46:40;;;;;;;;;;;;;;;4.48;100.00;99059.19;5061710;28;20269;-77
2022/04/08 00:49:05;;;;;;;;;;;;;;;4.48;100.00;99047.03;5080031;28;19931;-74
2022/04/08 00:51:32;;;;;;;;;;;;;;;4.48;100.00;99043.53;5090061;28;19920;-76
2022/04/08 00:54:01;;;;;;;;;;;;;;;4.47;100.00;99045.28;5116273;28;19916;-75
2022/04/08 00:56:28;;;;;;;;;;;;;;;4.48;100.00;99059.19;5095729;28;19916;-75
2022/04/08 00:58:54;;;;;;;;;;;;;;;4.44;100.00;99059.91;5088564;28;19920;-76
2022/04/08 01:01:19;;;;;;;;;;;;;;;4.43;100.00;99055.56;5082829;28;20314;-77
2022/04/08 01:03:46;;;;;;;;;;;;;;;4.39;100.00;99066.69;5092799;28;19916;-77
2022/04/08 01:06:12;;;;;;;;;;;;;;;4.40;100.00;99074.56;5062911;28;19969;-76
2022/04/08 01:08:38;;;;;;;;;;;;;;;4.38;100.00;99080.56;5089438;28;20321;-75
2022/04/08 01:11:03;;;;;;;;;;;;;;;4.39;100.00;99079.75;5090341;28;19920;-77
2022/04/08 01:13:29;;;;;;;;;;;;;;;4.31;100.00;99075.16;5078592;28;20035;-75
2022/04/08 01:15:55;;;;;;;;;;;;;;;4.27;100.00;99083.72;5077977;28;19920;-76
2022/04/08 01:18:20;;;;;;;;;;;;;;;4.24;100.00;99090.53;5082289;28;20011;-76
2022/04/08 01:20:45;;;;;;;;;;;;;;;4.21;100.00;99087.81;5092031;28;20409;-76
2022/04/08 01:23:11;;;;;;;;;;;;;;;4.20;100.00;99079.13;5094442;28;19916;-75
2022/04/08 01:25:37;;;;;;;;;;;;;;;4.16;100.00;99081.59;5090168;28;20003;-74
2022/04/08 01:28:02;;;;;;;;;;;;;;;4.09;100.00;99085.72;5086127;28;20348;-75
2022/04/08 01:30:27;;;;;;;;;;;;;;;4.09;100.00;99086.59;5083854;28;19963;-77
2022/04/08 01:32:54;;;;;;;;;;;;;;;4.01;100.00;99094.97;5084278;28;20380;-76
2022/04/08 01:35:19;;;;;;;;;;;;;;;3.94;100.00;99088.69;5080475;28;19916;-77
2022/04/08 01:37:44;;;;;;;;;;;;;;;4.04;100.00;99087.25;5086487;28;19920;-75
2022/04/08 01:40:10;;;;;;;;;;;;;;;4.08;100.00;99090.03;5086473;28;19916;-74
2022/04/08 01:42:35;;;;;;;;;;;;;;;4.20;100.00;99084.34;5079359;28;20286;-75
2022/04/08 01:45:01;;;;;;;;;;;;;;;4.28;100.00;99069.84;5073357;28;19923;-74
2022/04/08 01:47:27;;;;;;;;;;;;;;;4.34;100.00;99060.47;5076148;28;19920;-75
2022/04/08 01:49:52;;;;;;;;;;;;;;;4.36;100.00;99064.00;5056306;28;19924;-76
2022/04/08 01:52:17;;;;;;;;;;;;;;;4.36;100.00;99066.59;5106507;28;19920;-74
2022/04/08 01:54:44;;;;;;;;;;;;;;;4.35;100.00;99067.44;5084927;28;19920;-75
2022/04/08 01:57:09;;;;;;;;;;;;;;;4.31;100.00;99067.34;5094508;28;20304;-74
2022/04/08 01:59:34;;;;;;;;;;;;;;;4.35;100.00;99063.13;5103024;28;19920;-74
2022/04/08 02:02:00;;;;;;;;;;;;;;;4.36;100.00;99064.88;5084630;28;19919;-75
2022/04/08 02:04:27;;;;;;;;;;;;;;;4.31;100.00;99072.53;5086821;28;20406;-74
2022/04/08 02:06:52;;;;;;;;;;;;;;;4.26;100.00;99078.47;5076681;28;19916;-75
2022/04/08 02:09:18;;;;;;;;;;;;;;;4.21;100.00;99082.63;5086842;28;19920;-74
2022/04/08 02:11:43;;;;;;;;;;;;;;;4.15;100.00;99085.91;5082424;28;20011;-74
2022/04/08 02:14:09;;;;;;;;;;;;;;;4.08;100.00;99086.53;5078055;28;19963;-75
2022/04/08 02:16:34;;;;;;;;;;;;;;;4.12;100.00;99085.81;5076937;28;19920;-76
2022/04/08 02:18:59;;;;;;;;;;;;;;;4.06;100.00;99083.00;5089644;28;19931;-75
2022/04/08 02:21:25;;;;;;;;;;;;;;;4.00;100.00;99083.69;5075937;28;19916;-77
2022/04/08 02:23:50;;;;;;;;;;;;;;;4.01;100.00;99076.72;5078049;28;19921;-77
2022/04/08 02:26:16;;;;;;;;;;;;;;;3.96;100.00;99079.19;5082667;28;19923;-76
2022/04/08 02:28:42;;;;;;;;;;;;;;;3.99;100.00;99089.72;5094987;28;20387;-76
2022/04/08 02:31:07;;;;;;;;;;;;;;;3.98;100.00;99087.06;5076465;28;20395;-76
2022/04/08 02:33:34;;;;;;;;;;;;;;;3.98;100.00;99098.38;5096028;28;19916;-77
2022/04/08 02:35:59;;;;;;;;;;;;;;;4.01;100.00;99105.38;5096353;28;19916;-78
2022/04/08 02:38:24;;;;;;;;;;;;;;;3.94;100.00;99107.78;5092516;28;19922;-76
2022/04/08 02:40:49;;;;;;;;;;;;;;;3.93;100.00;99108.63;5092003;28;20002;-77
2022/04/08 02:43:16;;;;;;;;;;;;;;;3.95;100.00;99106.97;5090187;28;19916;-77
2022/04/08 02:45:41;;;;;;;;;;;;;;;3.90;100.00;99118.94;5091930;28;20305;-77
2022/04/08 02:48:06;;;;;;;;;;;;;;;3.92;100.00;99114.66;5078178;28;20008;-78
2022/04/08 02:50:32;;;;;;;;;;;;;;;3.87;100.00;99120.53;5094822;28;19923;-78
2022/04/08 02:53:05;;;;;;;;;;;;;;;3.83;100.00;99119.56;5077396;28;20372;-77
2022/04/08 02:55:30;;;;;;;;;;;;;;;3.75;100.00;99128.81;5092305;28;19920;-78
2022/04/08 02:57:56;;;;;;;;;;;;;;;3.72;100.00;99141.72;5078541;28;19912;-77
2022/04/08 03:00:22;;;;;;;;;;;;;;;3.68;100.00;99145.03;5083117;28;19926;-77
2022/04/08 03:02:48;;;;;;;;;;;;;;;3.66;100.00;99147.59;5112532;28;20305;-75
2022/04/08 03:05:13;;;;;;;;;;;;;;;3.65;100.00;99144.94;5074425;28;20419;-74
2022/04/08 03:07:39;;;;;;;;;;;;;;;3.63;100.00;99149.19;5095029;28;20018;-75
2022/04/08 03:10:07;;;;;;;;;;;;;;;3.61;100.00;99145.66;5094315;28;20433;-74
2022/04/08 03:12:32;;;;;;;;;;;;;;;3.53;100.00;99151.47;5090111;28;19916;-75
2022/04/08 03:14:58;;;;;;;;;;;;;;;3.59;100.00;99146.50;5089344;28;20019;-75
2022/04/08 03:17:23;;;;;;;;;;;;;;;3.58;100.00;99152.50;5083090;28;19945;-75
2022/04/08 03:19:49;;;;;;;;;;;;;;;3.51;100.00;99152.22;5093340;28;19971;-74
2022/04/08 03:22:14;;;;;;;;;;;;;;;3.48;100.00;99154.72;5112867;28;20282;-74
2022/04/08 03:24:40;;;;;;;;;;;;;;;3.48;100.00;99166.03;5090517;28;19969;-77
2022/04/08 03:27:06;;;;;;;;;;;;;;;3.50;100.00;99155.69;5099033;28;21768;-74
2022/04/08 03:29:31;;;;;;;;;;;;;;;3.54;100.00;99152.34;5094009;28;19959;-76
2022/04/08 03:31:56;;;;;;;;;;;;;;;3.51;100.00;99157.44;5100278;28;20319;-75
2022/04/08 03:34:21;;;;;;;;;;;;;;;3.53;100.00;99158.41;5075428;28;19928;-75
2022/04/08 03:36:47;;;;;;;;;;;;;;;3.48;100.00;99153.03;5079883;28;19973;-74
2022/04/08 03:39:13;;;;;;;;;;;;;;;3.43;100.00;99151.94;5074106;28;19916;-74
2022/04/08 03:41:39;;;;;;;;;;;;;;;3.45;100.00;99145.09;5078983;28;19920;-74
2022/04/08 03:44:06;;;;;;;;;;;;;;;3.40;100.00;99149.22;5085171;28;19927;-75
2022/04/08 03:46:31;;;;;;;;;;;;;;;3.38;100.00;99140.50;5075077;28;19927;-75
2022/04/08 03:48:57;;;;;;;;;;;;;;;3.38;100.00;99130.09;5091484;28;19924;-75
2022/04/08 03:51:22;;;;;;;;;;;;;;;3.32;100.00;99124.66;5093789;28;19923;-74
2022/04/08 03:53:47;;;;;;;;;;;;;;;3.23;100.00;99120.88;5090868;28;20504;-74
2022/04/08 03:56:12;;;;;;;;;;;;;;;3.24;100.00;99119.16;5085346;28;19920;-75
2022/04/08 03:58:38;;;;;;;;;;;;;;;3.23;100.00;99113.09;5066093;28;20023;-75
2022/04/08 04:01:03;;;;;;;;;;;;;;;3.39;100.00;99111.06;5093427;28;19980;-74
2022/04/08 04:03:29;;;;;;;;;;;;;;;3.40;100.00;99107.59;5085705;28;19943;-74
2022/04/08 04:05:55;;;;;;;;;;;;;;;3.33;100.00;99110.81;5079677;28;19920;-75
2022/04/08 04:08:20;;;;;;;;;;;;;;;3.35;100.00;99106.56;5073666;28;19926;-75
2022/04/08 04:10:46;;;;;;;;;;;;;;;3.40;100.00;99095.50;5092615;28;20372;-74
2022/04/08 04:13:14;;;;;;;;;;;;;;;3.36;100.00;99104.00;5081360;28;19999;-74
2022/04/08 04:15:39;;;;;;;;;;;;;;;3.32;100.00;99099.50;5101483;28;19924;-73
2022/04/08 04:18:05;;;;;;;;;;;;;;;3.27;100.00;99097.59;5084771;28;20448;-75
2022/04/08 04:20:30;;;;;;;;;;;;;;;3.31;100.00;99097.75;5061701;28;19924;-75
2022/04/08 04:22:57;;;;;;;;;;;;;;;3.23;100.00;99097.47;5100006;28;19995;-75
2022/04/08 04:25:22;;;;;;;;;;;;;;;3.10;100.00;99103.03;5097201;28;19916;-74
2022/04/08 04:27:47;;;;;;;;;;;;;;;3.03;100.00;99099.31;5097730;28;19923;-76
2022/04/08 04:30:12;;;;;;;;;;;;;;;3.07;100.00;99096.84;5079061;28;19923;-76
2022/04/08 04:32:38;;;;;;;;;;;;;;;3.07;100.00;99097.72;5079230;28;19920;-77
2022/04/08 04:35:08;;;;;;;;;;;;;;;2.97;100.00;99090.41;5094812;28;20649;-77
2022/04/08 04:37:34;;;;;;;;;;;;;;;2.99;100.00;99093.94;5114893;28;19923;-77
2022/04/08 04:40:00;;;;;;;;;;;;;;;2.96;100.00;99086.03;5100661;28;19927;-75
2022/04/08 04:42:27;;;;;;;;;;;;;;;2.94;100.00;99085.97;5077794;28;19927;-74
2022/04/08 04:44:54;;;;;;;;;;;;;;;2.87;100.00;99086.56;5092033;28;20002;-75
2022/04/08 04:47:19;;;;;;;;;;;;;;;2.85;100.00;99086.50;5082013;28;20019;-74
2022/04/08 04:49:45;;;;;;;;;;;;;;;2.88;100.00;99083.13;5078202;28;19999;-77
2022/04/08 04:52:10;;;;;;;;;;;;;;;2.96;100.00;99073.03;5077911;28;19916;-77
2022/04/08 04:54:38;;;;;;;;;;;;;;;3.00;100.00;99067.13;5081265;28;19916;-76
2022/04/08 04:57:03;;;;;;;;;;;;;;;3.05;100.00;99058.66;5084838;28;19927;-77
2022/04/08 04:59:29;;;;;;;;;;;;;;;3.06;100.00;99059.53;5072638;28;20327;-77
2022/04/08 05:01:55;;;;;;;;;;;;;;;3.06;100.00;99059.53;5096864;28;19959;-79
2022/04/08 05:04:22;;;;;;;;;;;;;;;3.07;100.00;99061.31;5084294;28;19916;-77
2022/04/08 05:06:48;;;;;;;;;;;;;;;3.10;100.00;99048.41;5096682;28;20264;-76
2022/04/08 05:09:13;;;;;;;;;;;;;;;3.13;100.00;99040.72;5095380;28;19924;-76
2022/04/08 05:11:38;;;;;;;;;;;;;;;3.16;100.00;99043.44;5091823;28;19970;-77
2022/04/08 05:14:05;;;;;;;;;;;;;;;3.24;100.00;99048.94;5077092;28;19920;-76
2022/04/08 05:16:30;;;;;;;;;;;;;;;3.33;100.00;99045.78;5067478;28;19979;-77
2022/04/08 05:18:55;;;;;;;;;;;;;;;3.50;100.00;99036.84;5079799;28;19974;-75
2022/04/08 05:21:21;;;;;;;;;;;;;;;3.65;100.00;99043.41;5078873;28;19989;-79
2022/04/08 05:23:46;;;;;;;;;;;;;;;3.71;100.00;99035.81;5077297;28;19926;-76
2022/04/08 05:26:11;;;;;;;;;;;;;;;3.86;100.00;99033.72;5077197;28;20061;-75
2022/04/08 05:28:37;;;;;;;;;;;;;;;4.03;100.00;99025.59;5094774;28;19920;-78
2022/04/08 05:31:02;;;;;;;;;;;;;;;4.19;100.00;99034.78;5076313;28;19927;-76
2022/04/08 05:33:28;;;;;;;;;;;;;;;4.28;100.00;99037.69;5097508;28;20003;-76
2022/04/08 05:35:53;;;;;;;;;;;;;;;4.32;100.00;99040.44;5109938;28;19924;-76
2022/04/08 05:38:19;;;;;;;;;;;;;;;4.43;100.00;99043.41;5077530;28;19967;-77
2022/04/08 05:40:45;;;;;;;;;;;;;;;4.61;100.00;99050.88;5079831;28;19954;-77
2022/04/08 05:43:11;;;;;;;;;;;;;;;4.77;100.00;99064.41;5094964;28;19922;-76
2022/04/08 05:45:36;;;;;;;;;;;;;;;4.76;100.00;99070.47;5078942;28;20317;-75
2022/04/08 05:48:03;;;;;;;;;;;;;;;4.75;100.00;99081.72;5086677;28;19924;-74
2022/04/08 05:50:28;;;;;;;;;;;;;;;4.77;100.00;99080.94;5075517;28;19920;-73
2022/04/08 05:52:53;;;;;;;;;;;;;;;4.78;100.00;99077.47;5075717;28;19989;-74
2022/04/08 05:55:19;;;;;;;;;;;;;;;4.91;100.00;99085.69;5075429;28;19927;-73
2022/04/08 05:57:45;;;;;;;;;;;;;;;5.21;100.00;99088.31;5075262;28;19920;-76
2022/04/08 06:00:12;;;;;;;;;;;;;;;5.73;100.00;99091.50;5075698;28;19948;-77
2022/04/08 06:02:37;;;;;;;;;;;;;;;6.05;100.00;99100.25;5076082;28;19916;-77
2022/04/08 06:05:04;;;;;;;;;;;;;;;6.32;100.00;99111.38;5094652;28;19916;-77
2022/04/08 06:07:29;;;;;;;;;;;;;;;6.71;100.00;99114.06;5069118;28;19977;-77
2022/04/08 06:09:56;;;;;;;;;;;;;;;7.22;100.00;99136.13;5115373;28;19958;-76
2022/04/08 06:12:21;;;;;;;;;;;;;;;7.35;100.00;99184.44;5059584;28;19931;-79
2022/04/08 06:14:48;;;;;;;;;;;;;;;7.41;100.00;99217.72;5093125;28;20295;-77
2022/04/08 06:17:13;;;;;;;;;;;;;;;7.55;100.00;99230.28;5073827;28;19927;-78
2022/04/08 06:19:38;;;;;;;;;;;;;;;7.31;100.00;99255.91;5076001;28;19924;-77
2022/04/08 06:22:03;;;;;;;;;;;;;;;7.10;100.00;99266.75;5111726;28;19930;-77
2022/04/08 06:24:30;;;;;;;;;;;;;;;6.94;100.00;99270.72;5100030;28;19919;-77
2022/04/08 06:26:55;;;;;;;;;;;;;;;6.75;100.00;99272.00;5095408;28;19942;-75
2022/04/08 06:29:20;;;;;;;;;;;;;;;6.60;100.00;99282.91;5095679;28;19920;-77
2022/04/08 06:31:45;;;;;;;;;;;;;;;6.55;100.00;99267.09;5077944;28;20550;-78
2022/04/08 06:34:12;;;;;;;;;;;;;;;6.62;100.00;99253.34;5076562;28;19950;-78
2022/04/08 06:36:37;;;;;;;;;;;;;;;6.79;100.00;99245.94;5076216;28;19916;-77
2022/04/08 06:39:02;;;;;;;;;;;;;;;6.99;100.00;99259.53;5108571;28;19920;-78
2022/04/08 06:41:28;;;;;;;;;;;;;;;7.37;100.00;99249.06;5095496;28;20436;-79
2022/04/08 06:43:53;;;;;;;;;;;;;;;7.52;100.00;99251.16;5094162;28;19997;-74
2022/04/08 06:46:21;;;;;;;;;;;;;;;7.79;100.00;99242.16;5077032;28;20405;-73
2022/04/08 06:48:46;;;;;;;;;;;;;;;8.18;100.00;99256.06;5093920;28;19999;-74
2022/04/08 06:51:11;;;;;;;;;;;;;;;8.08;100.00;99271.59;5093836;28;20344;-75
2022/04/08 06:53:36;;;;;;;;;;;;;;;8.51;100.00;99274.19;5093850;28;19946;-75
2022/04/08 06:56:03;;;;;;;;;;;;;;;8.55;100.00;99293.53;5094172;28;19923;-75
2022/04/08 06:58:28;;;;;;;;;;;;;;;8.61;100.00;99301.53;5094066;28;20398;-76
2022/04/08 07:00:54;;;;;;;;;;;;;;;9.15;100.00;99302.44;5111627;28;19992;-75
2022/04/08 07:03:19;;;;;;;;;;;;;;;9.25;100.00;99303.53;5094561;28;19935;-77
2022/04/08 07:05:44;;;;;;;;;;;;;;;9.48;100.00;99306.53;5094669;28;19959;-76
2022/04/08 07:08:10;;;;;;;;;;;;;;;9.68;100.00;99307.69;5093553;28;19915;-76
2022/04/08 07:10:35;;;;;;;;;;;;;;;9.49;100.00;99322.31;5094314;28;19916;-75
2022/04/08 07:13:01;;;;;;;;;;;;;;;9.27;100.00;99328.94;5112032;28;19916;-78
2022/04/08 07:15:26;;;;;;;;;;;;;;;9.10;100.00;99333.88;5093556;28;19998;-78
2022/04/08 07:17:51;;;;;;;;;;;;;;;9.06;100.00;99318.06;5112220;28;19969;-77
2022/04/08 07:20:17;;;;;;;;;;;;;;;8.98;100.00;99326.69;5094222;28;20006;-74
2022/04/08 07:22:42;;;;;;;;;;;;;;;8.89;100.00;99321.28;5093219;28;20333;-77
2022/04/08 07:25:08;;;;;;;;;;;;;;;8.69;100.00;99325.28;5094150;28;20008;-75
2022/04/08 07:27:50;;;;;;;;;;;;;;;8.64;100.00;99319.94;5093351;28;19920;-78
2022/04/08 07:30:17;;;;;;;;;;;;;;;8.81;100.00;99312.38;5094202;28;19916;-77
2022/04/08 07:32:42;;;;;;;;;;;;;;;8.70;100.00;99311.28;5112461;28;19916;-78
2022/04/08 07:35:09;;;;;;;;;;;;;;;8.82;100.00;99295.75;5111564;28;20386;-78
2022/04/08 07:37:35;;;;;;;;;;;;;;;8.90;100.00;99291.56;5094475;28;19923;-78
2022/04/08 07:40:01;;;;;;;;;;;;;;;8.82;100.00;99293.13;5076943;28;19920;-77
2022/04/08 07:42:26;;;;;;;;;;;;;;;8.90;100.00;99288.94;5093864;28;19941;-78
2022/04/08 07:44:52;;;;;;;;;;;;;;;8.82;100.00;99287.00;5093823;28;19924;-74
2022/04/08 07:47:19;;;;;;;;;;;;;;;8.61;100.00;99291.91;5094538;28;19939;-78
2022/04/08 07:49:45;;;;;;;;;;;;;;;8.87;100.00;99270.50;5093312;28;19920;-78
2022/04/08 07:52:10;;;;;;;;;;;;;;;8.63;100.00;99284.06;5093986;28;20399;-78
2022/04/08 07:54:35;;;;;;;;;;;;;;;8.61;100.00;99288.41;5112095;28;20015;-78
2022/04/08 07:57:00;;;;;;;;;;;;;;;8.36;100.00;99289.59;5092567;28;20379;-77
2022/04/08 07:59:26;;;;;;;;;;;;;;;8.35;100.00;99301.84;5111785;28;20356;-76
2022/04/08 08:01:51;;;;;;;;;;;;;;;8.31;100.00;99307.00;5093024;28;20268;-75
2022/04/08 08:04:16;;;;;;;;;;;;;;;8.42;100.00;99300.22;5111419;28;19972;-75
2022/04/08 08:06:42;;;;;;;;;;;;;;;8.48;100.00;99303.00;5093935;28;19916;-77
2022/04/08 08:09:08;;;;;;;;;;;;;;;8.58;100.00;99294.47;5093126;28;19923;-74
2022/04/08 08:11:33;;;;;;;;;;;;;;;8.68;100.00;99297.25;5092979;28;19927;-74
2022/04/08 08:13:58;;;;;;;;;;;;;;;8.79;100.00;99294.00;5093388;28;19918;-77
2022/04/08 08:16:24;;;;;;;;;;;;;;;8.61;100.00;99302.38;5111357;28;20360;-75
2022/04/08 08:18:50;;;;;;;;;;;;;;;8.65;100.00;99294.56;5093017;28;19915;-75
2022/04/08 08:21:15;;;;;;;;;;;;;;;8.65;100.00;99289.31;5093445;28;20208;-77
2022/04/08 08:23:40;;;;;;;;;;;;;;;9.07;100.00;99277.81;5093318;28;19923;-76
2022/04/08 08:26:06;;;;;;;;;;;;;;;9.24;100.00;99273.72;5092380;28;20049;-75
2022/04/08 08:28:32;;;;;;;;;;;;;;;8.97;100.00;99268.91;5093332;28;19916;-75
2022/04/08 08:30:58;;;;;;;;;;;;;;;8.62;100.00;99290.16;5092512;28;20268;-75
2022/04/08 08:33:23;;;;;;;;;;;;;;;8.72;100.00;99291.22;5111556;28;19918;-75
2022/04/08 08:35:50;;;;;;;;;;;;;;;9.00;100.00;99283.84;5111308;28;20027;-77
2022/04/08 08:38:15;;;;;;;;;;;;;;;9.15;100.00;99291.94;5092966;28;19916;-76
2022/04/08 08:40:42;;;;;;;;;;;;;;;9.54;100.00;99290.84;5093381;28;19965;-77
2022/04/08 08:43:07;;;;;;;;;;;;;;;9.68;100.00;99302.44;5093312;28;19923;-77
2022/04/08 08:45:33;;;;;;;;;;;;;;;10.10;100.00;99291.59;5092735;28;20400;-77
2022/04/08 08:48:00;;;;;;;;;;;;;;;10.25;100.00;99299.69;5092764;28;20006;-76
2022/04/08 08:50:25;;;;;;;;;;;;;;;10.58;100.00;99306.22;5093002;28;20010;-77
2022/04/08 08:52:51;;;;;;;;;;;;;;;10.57;100.00;99333.44;5075874;28;20022;-76
2022/04/08 08:55:19;;;;;;;;;;;;;;;10.62;100.00;99349.28;5111367;28;19955;-77
2022/04/08 08:57:45;;;;;;;;;;;;;;;10.21;100.00;99375.06;5093639;28;19920;-76
2022/04/08 09:00:16;;;;;;;;;;;;;;;9.98;100.00;99373.84;5110610;28;19923;-76
2022/04/08 09:02:45;;;;;;;;;;;;;;;9.88;100.00;99368.47;5111261;28;19924;-76
2022/04/08 09:05:12;;;;;;;;;;;;;;;9.91;100.00;99358.84;5093673;28;20395;-78
2022/04/08 09:07:37;;;;;;;;;;;;;;;9.78;100.00;99363.91;5093802;28;19966;-78
2022/04/08 09:10:03;;;;;;;;;;;;;;;9.42;100.00;99358.97;5114816;28;20371;-78
2022/04/08 09:12:28;;;;;;;;;;;;;;;9.49;100.00;99353.84;5096677;28;19920;-78
2022/04/08 09:14:55;;;;;;;;;;;;;;;9.58;100.00;99363.59;5096507;28;19969;-78
2022/04/08 09:17:21;;;;;;;;;;;;;;;9.75;100.00;99374.38;5115168;28;19916;-79
2022/04/08 09:19:48;;;;;;;;;;;;;;;9.60;100.00;99377.66;5097156;28;19961;-78
2022/04/08 09:22:13;;;;;;;;;;;;;;;9.64;100.00;99381.22;5096176;28;19920;-78
2022/04/08 09:24:39;;;;;;;;;;;;;;;9.44;100.00;99375.63;5097097;28;20378;-78
2022/04/08 09:27:04;;;;;;;;;;;;;;;9.23;100.00;99366.53;5096763;28;19916;-78
2022/04/08 09:29:29;;;;;;;;;;;;;;;8.87;100.00;99379.84;5096342;28;19958;-78
2022/04/08 09:31:55;;;;;;;;;;;;;;;9.06;100.00;99371.47;5096716;28;19915;-79
2022/04/08 09:34:21;;;;;;;;;;;;;;;9.15;100.00;99361.13;5095783;28;20124;-77
2022/04/08 09:36:46;;;;;;;;;;;;;;;9.30;100.00;99355.25;5096509;28;19923;-77
2022/04/08 09:39:13;;;;;;;;;;;;;;;9.23;100.00;99349.88;5096652;28;19923;-78
2022/04/08 09:41:43;;;;;;;;;;;;;;;9.02;100.00;99360.88;5095646;28;19916;-77
2022/04/08 09:44:09;;;;;;;;;;;;;;;8.81;100.00;99370.13;5096073;28;19959;-78
2022/04/08 09:46:36;;;;;;;;;;;;;;;8.98;100.00;99367.84;5096545;28;19958;-77
2022/04/08 09:49:01;;;;;;;;;;;;;;;9.11;100.00;99363.69;5113727;28;19919;-78
2022/04/08 09:51:27;;;;;;;;;;;;;;;9.28;100.00;99372.75;5096182;28;19916;-78
2022/04/08 09:53:59;;;;;;;;;;;;;;;9.15;100.00;99379.53;5095975;28;19912;-78
2022/04/08 09:56:26;;;;;;;;;;;;;;;9.48;100.00;99383.59;5113978;28;19920;-77
2022/04/08 09:59:05;;;;;;;;;;;;;;;9.48;100.00;99383.59;5095844;28;20334;-78
2022/04/08 10:01:31;;;;;;;;;;;;;;;9.64;100.00;99397.00;5096348;28;19916;-80
2022/04/08 10:03:56;;;;;;;;;;;;;;;9.87;100.00;99400.84;5095039;28;19919;-79
2022/04/08 10:06:23;;;;;;;;;;;;;;;9.68;100.00;99399.69;5096444;28;19920;-79
2022/04/08 10:08:49;;;;;;;;;;;;;;;9.56;100.00;99404.75;5096135;28;20409;-78
2022/04/08 10:11:18;;;;;;;;;;;;;;;9.82;100.00;99391.13;5095401;28;20379;-77
2022/04/08 10:13:49;;;;;;;;;;;;;;;9.65;100.00;99410.16;5096168;28;19920;-78
2022/04/08 10:16:15;;;;;;;;;;;;;;;9.74;100.00;99401.53;5096271;28;19977;-78
2022/04/08 10:18:41;;;;;;;;;;;;;;;9.76;100.00;99396.31;5095090;28;19915;-78
2022/04/08 10:21:06;;;;;;;;;;;;;;;9.81;100.00;99402.53;5113513;28;19961;-78
2022/04/08 10:23:40;;;;;;;;;;;;;;;10.01;100.00;99403.69;5095019;28;19915;-78
2022/04/08 10:26:15;;;;;;;;;;;;;;;9.94;100.00;99406.22;5095718;28;20409;-78
2022/04/08 10:28:41;;;;;;;;;;;;;;;9.92;100.00;99397.44;5095940;28;19916;-78
2022/04/08 10:31:13;;;;;;;;;;;;;;;10.01;100.00;99390.56;5095051;28;20283;-78
2022/04/08 10:33:44;;;;;;;;;;;;;;;10.30;100.00;99378.66;5095461;28;19912;-78
2022/04/08 10:36:09;;;;;;;;;;;;;;;10.28;100.00;99394.44;5095530;28;19976;-78
2022/04/08 10:38:35;;;;;;;;;;;;;;;10.23;100.00;99410.16;5094825;28;19919;-78
2022/04/08 10:41:01;;;;;;;;;;;;;;;9.96;100.00;99428.16;5095208;28;19916;-78
2022/04/08 10:43:27;;;;;;;;;;;;;;;9.94;100.00;99430.75;5095182;28;19918;-78
2022/04/08 10:45:53;;;;;;;;;;;;;;;10.03;100.00;99438.78;5094693;28;20378;-78
2022/04/08 10:48:19;;;;;;;;;;;;;;;10.02;100.00;99430.88;5113183;28;19920;-77
2022/04/08 10:50:44;;;;;;;;;;;;;;;9.81;100.00;99434.06;5095486;28;19976;-78
2022/04/08 10:53:13;;;;;;;;;;;;;;;9.69;100.00;99445.25;5112417;28;20173;-78
2022/04/08 10:55:45;;;;;;;;;;;;;;;9.61;100.00;99431.09;5095048;28;19939;-78
2022/04/08 10:58:10;;;;;;;;;;;;;;;9.72;100.00;99415.50;5112868;28;20333;-78
2022/04/08 11:00:38;;;;;;;;;;;;;;;9.63;100.00;99405.72;5094486;28;20007;-77
2022/04/08 11:03:04;;;;;;;;;;;;;;;10.01;100.00;99398.44;5094888;28;20354;-78
2022/04/08 11:05:35;;;;;;;;;;;;;;;9.70;100.00;99403.22;5113594;28;19922;-78
2022/04/08 11:08:01;;;;;;;;;;;;;;;9.63;100.00;99411.88;5112797;28;19943;-78
2022/04/08 11:10:27;;;;;;;;;;;;;;;9.31;100.00;99422.69;5095016;28;20383;-78
2022/04/08 11:12:53;;;;;;;;;;;;;;;9.53;100.00;99409.94;5093723;28;19922;-77
2022/04/08 11:15:25;;;;;;;;;;;;;;;9.69;100.00;99411.06;5112817;28;19985;-77
2022/04/08 11:17:51;;;;;;;;;;;;;;;9.69;100.00;99416.34;5077780;28;19955;-78
2022/04/08 11:20:17;;;;;;;;;;;;;;;9.64;100.00;99413.63;5094210;28;19922;-78
2022/04/08 11:23:02;;;;;;;;;;;;;;;9.44;100.00;99400.16;5094519;28;19916;-78
2022/04/08 11:25:29;;;;;;;;;;;;;;;9.60;100.00;99396.06;5092117;28;19920;-78
2022/04/08 11:28:00;;;;;;;;;;;;;;;9.98;100.00;99392.25;5093735;28;19920;-78
2022/04/08 11:30:27;;;;;;;;;;;;;;;9.83;100.00;99388.50;5093653;28;19915;-78
2022/04/08 11:32:52;;;;;;;;;;;;;;;9.79;100.00;99404.22;5094143;28;20023;-78
2022/04/08 11:35:17;;;;;;;;;;;;;;;9.73;100.00;99406.78;5093949;28;20007;-78
2022/04/08 11:37:42;;;;;;;;;;;;;;;9.80;100.00;99406.88;5112750;28;19976;-78
2022/04/08 11:40:14;;;;;;;;;;;;;;;10.04;100.00;99401.13;5112253;28;19916;-78
2022/04/08 11:42:40;;;;;;;;;;;;;;;10.10;100.00;99395.06;5094321;28;20386;-78
2022/04/08 11:45:05;;;;;;;;;;;;;;;9.90;100.00;99389.50;5111744;28;19916;-78
2022/04/08 11:47:32;;;;;;;;;;;;;;;9.79;100.00;99388.44;5077506;28;19924;-77
2022/04/08 11:50:01;;;;;;;;;;;;;;;9.83;100.00;99392.91;5093132;28;19920;-78
2022/04/08 11:52:28;;;;;;;;;;;;;;;9.73;100.00;99396.25;5093784;28;22010;-78
2022/04/08 11:55:01;;;;;;;;;;;;;;;9.94;100.00;99404.47;5093073;28;20349;-78
2022/04/08 11:57:29;;;;;;;;;;;;;;;10.10;100.00;99404.69;5112043;28;19920;-78
2022/04/08 11:59:55;;;;;;;;;;;;;;;9.99;100.00;99428.19;5112131;28;19916;-78
2022/04/08 12:02:21;;;;;;;;;;;;;;;10.16;100.00;99444.25;5093675;28;20272;-78
2022/04/08 12:04:49;;;;;;;;;;;;;;;10.46;100.00;99448.22;5093791;28;19938;-77
2022/04/08 12:07:24;;;;;;;;;;;;;;;10.29;100.00;99458.47;5094099;28;19927;-78
2022/04/08 12:10:09;;;;;;;;;;;;;;;10.43;100.00;99485.03;5093129;28;20328;-77
2022/04/08 12:12:35;;;;;;;;;;;;;;;10.51;100.00;99483.38;5110461;28;19929;-78
2022/04/08 12:15:07;;;;;;;;;;;;;;;10.57;100.00;99492.25;5093656;28;19922;-77
2022/04/08 12:17:39;;;;;;;;;;;;;;;10.10;100.00;99528.31;5093574;28;19937;-78
2022/04/08 12:20:05;;;;;;;;;;;;;;;10.36;100.00;99529.69;5093528;28;19924;-78
2022/04/08 12:22:32;;;;;;;;;;;;;;;10.30;100.00;99537.44;5093770;28;19924;-78
2022/04/08 12:24:58;;;;;;;;;;;;;;;10.32;100.00;99569.91;5092700;28;19915;-78
2022/04/08 12:27:24;;;;;;;;;;;;;;;10.56;100.00;99605.41;5093883;28;20003;-77
2022/04/08 12:30:03;;;;;;;;;;;;;;;10.69;100.00;99636.34;5110495;28;20367;-78
2022/04/08 12:32:33;;;;;;;;;;;;;;;10.63;100.00;99654.69;5093200;28;19923;-77
2022/04/08 12:34:58;;;;;;;;;;;;;;;10.72;100.00;99661.81;5093161;28;19919;-76
2022/04/08 12:37:23;;;;;;;;;;;;;;;10.56;100.00;99673.84;5111146;28;19927;-78
2022/04/08 12:39:49;;;;;;;;;;;;;;;10.35;100.00;99713.84;5076411;28;19942;-76